sensor_id;sensor_type;location;lat;lon;timestamp;temperature;humidity
80232;DHT22;69541;42.138;24.742;2023-04-24T00:01:10;23.40;30.20
80232;DHT22;69541;42.138;24.742;2023-04-24T00:03:38;23.40;30.20
80232;DHT22;69541;42.138;24.742;2023-04-24T00:06:05;23.40;30.30
80232;DHT22;69541;42.138;24.742;2023-04-24T00:08:32;23.40;30.30
80232;DHT22;69541;42.138;24.742;2023-04-24T00:10:58;23.40;30.30
80232;DHT22;69541;42.138;24.742;2023-04-24T00:13:23;23.40;30.20
80232;DHT22;69541;42.138;24.742;2023-04-24T00:15:49;23.40;30.30
80232;DHT22;69541;42.138;24.742;2023-04-24T00:18:15;23.40;30.30
80232;DHT22;69541;42.138;24.742;2023-04-24T00:20:41;23.40;30.30
80232;DHT22;69541;42.138;24.742;2023-04-24T00:23:09;23.40;30.30
80232;DHT22;69541;42.138;24.742;2023-04-24T00:25:35;23.40;30.20
80232;DHT22;69541;42.138;24.742;2023-04-24T00:28:00;23.40;30.30
80232;DHT22;69541;42.138;24.742;2023-04-24T00:30:26;23.40;30.30
80232;DHT22;69541;42.138;24.742;2023-04-24T00:32:52;23.40;30.20
80232;DHT22;69541;42.138;24.742;2023-04-24T00:35:20;23.40;30.30
80232;DHT22;69541;42.138;24.742;2023-04-24T00:37:46;23.40;30.20
80232;DHT22;69541;42.138;24.742;2023-04-24T00:40:11;23.40;30.30
80232;DHT22;69541;42.138;24.742;2023-04-24T00:42:37;23.40;30.30
80232;DHT22;69541;42.138;24.742;2023-04-24T00:45:04;23.40;30.30
80232;DHT22;69541;42.138;24.742;2023-04-24T00:47:32;23.40;30.30
80232;DHT22;69541;42.138;24.742;2023-04-24T00:50:00;23.30;30.20
80232;DHT22;69541;42.138;24.742;2023-04-24T00:52:26;23.40;30.30
80232;DHT22;69541;42.138;24.742;2023-04-24T00:54:52;23.40;30.30
80232;DHT22;69541;42.138;24.742;2023-04-24T00:57:18;23.40;30.30
80232;DHT22;69541;42.138;24.742;2023-04-24T00:59:44;23.40;30.30
80232;DHT22;69541;42.138;24.742;2023-04-24T01:02:10;23.40;30.30
80232;DHT22;69541;42.138;24.742;2023-04-24T01:04:36;23.40;30.30
80232;DHT22;69541;42.138;24.742;2023-04-24T01:07:03;23.30;31.30
80232;DHT22;69541;42.138;24.742;2023-04-24T01:09:30;23.30;30.30
80232;DHT22;69541;42.138;24.742;2023-04-24T01:11:55;23.30;30.30
80232;DHT22;69541;42.138;24.742;2023-04-24T01:14:22;23.30;30.30
80232;DHT22;69541;42.138;24.742;2023-04-24T01:16:47;23.40;30.30
80232;DHT22;69541;42.138;24.742;2023-04-24T01:19:16;23.30;30.20
80232;DHT22;69541;42.138;24.742;2023-04-24T01:21:44;23.30;30.20
80232;DHT22;69541;42.138;24.742;2023-04-24T01:24:11;23.40;30.30
80232;DHT22;69541;42.138;24.742;2023-04-24T01:26:37;23.40;30.30
80232;DHT22;69541;42.138;24.742;2023-04-24T01:29:03;23.40;30.30
80232;DHT22;69541;42.138;24.742;2023-04-24T01:31:28;23.30;30.20
80232;DHT22;69541;42.138;24.742;2023-04-24T01:33:55;23.30;30.30
80232;DHT22;69541;42.138;24.742;2023-04-24T01:36:22;23.30;30.30
80232;DHT22;69541;42.138;24.742;2023-04-24T01:38:48;23.30;30.30
80232;DHT22;69541;42.138;24.742;2023-04-24T01:41:14;23.30;30.30
80232;DHT22;69541;42.138;24.742;2023-04-24T01:43:40;23.30;30.30
80232;DHT22;69541;42.138;24.742;2023-04-24T01:46:06;23.30;30.20
80232;DHT22;69541;42.138;24.742;2023-04-24T01:48:32;23.30;30.30
80232;DHT22;69541;42.138;24.742;2023-04-24T01:50:59;23.30;30.30
80232;DHT22;69541;42.138;24.742;2023-04-24T01:53:25;23.30;30.30
80232;DHT22;69541;42.138;24.742;2023-04-24T01:55:50;23.30;30.30
80232;DHT22;69541;42.138;24.742;2023-04-24T01:58:16;23.30;30.20
80232;DHT22;69541;42.138;24.742;2023-04-24T02:00:42;23.30;30.30
80232;DHT22;69541;42.138;24.742;2023-04-24T02:03:07;23.30;30.30
80232;DHT22;69541;42.138;24.742;2023-04-24T02:05:33;23.30;30.30
80232;DHT22;69541;42.138;24.742;2023-04-24T02:07:59;23.30;30.30
80232;DHT22;69541;42.138;24.742;2023-04-24T02:10:25;23.30;30.20
80232;DHT22;69541;42.138;24.742;2023-04-24T02:12:50;23.30;30.30
80232;DHT22;69541;42.138;24.742;2023-04-24T02:15:16;23.30;30.30
80232;DHT22;69541;42.138;24.742;2023-04-24T02:17:43;23.30;30.30
80232;DHT22;69541;42.138;24.742;2023-04-24T02:20:11;23.30;30.30
80232;DHT22;69541;42.138;24.742;2023-04-24T02:22:36;23.30;30.30
80232;DHT22;69541;42.138;24.742;2023-04-24T02:25:05;23.30;30.30
80232;DHT22;69541;42.138;24.742;2023-04-24T02:27:31;23.30;30.30
80232;DHT22;69541;42.138;24.742;2023-04-24T02:29:57;23.30;30.30
80232;DHT22;69541;42.138;24.742;2023-04-24T02:32:22;23.30;30.30
80232;DHT22;69541;42.138;24.742;2023-04-24T02:34:48;23.30;30.30
80232;DHT22;69541;42.138;24.742;2023-04-24T02:37:14;23.30;30.30
80232;DHT22;69541;42.138;24.742;2023-04-24T02:39:39;23.30;30.30
80232;DHT22;69541;42.138;24.742;2023-04-24T02:42:05;23.30;30.30
80232;DHT22;69541;42.138;24.742;2023-04-24T02:44:33;23.30;30.30
80232;DHT22;69541;42.138;24.742;2023-04-24T02:46:59;23.30;30.30
80232;DHT22;69541;42.138;24.742;2023-04-24T02:49:25;23.30;30.30
80232;DHT22;69541;42.138;24.742;2023-04-24T02:51:51;23.20;31.40
80232;DHT22;69541;42.138;24.742;2023-04-24T02:54:17;23.30;30.30
80232;DHT22;69541;42.138;24.742;2023-04-24T02:56:42;23.30;30.30
80232;DHT22;69541;42.138;24.742;2023-04-24T02:59:08;23.20;30.20
80232;DHT22;69541;42.138;24.742;2023-04-24T03:01:34;23.20;30.20
80232;DHT22;69541;42.138;24.742;2023-04-24T03:03:59;23.20;30.40
80232;DHT22;69541;42.138;24.742;2023-04-24T03:06:25;23.20;30.20
80232;DHT22;69541;42.138;24.742;2023-04-24T03:08:52;23.30;30.30
80232;DHT22;69541;42.138;24.742;2023-04-24T03:11:18;23.30;30.30
80232;DHT22;69541;42.138;24.742;2023-04-24T03:13:43;23.20;30.20
80232;DHT22;69541;42.138;24.742;2023-04-24T03:16:09;23.20;30.30
80232;DHT22;69541;42.138;24.742;2023-04-24T03:18:35;23.20;30.20
80232;DHT22;69541;42.138;24.742;2023-04-24T03:21:00;23.30;30.30
80232;DHT22;69541;42.138;24.742;2023-04-24T03:23:26;23.20;30.20
80232;DHT22;69541;42.138;24.742;2023-04-24T03:25:52;23.20;30.30
80232;DHT22;69541;42.138;24.742;2023-04-24T03:28:20;23.20;30.30
80232;DHT22;69541;42.138;24.742;2023-04-24T03:30:46;23.20;30.30
80232;DHT22;69541;42.138;24.742;2023-04-24T03:33:12;23.20;30.20
80232;DHT22;69541;42.138;24.742;2023-04-24T03:35:37;23.20;30.20
80232;DHT22;69541;42.138;24.742;2023-04-24T03:38:03;23.20;30.20
80232;DHT22;69541;42.138;24.742;2023-04-24T03:40:30;23.20;30.20
80232;DHT22;69541;42.138;24.742;2023-04-24T03:42:55;23.20;30.20
80232;DHT22;69541;42.138;24.742;2023-04-24T03:45:21;23.20;30.30
80232;DHT22;69541;42.138;24.742;2023-04-24T03:47:47;23.20;30.20
80232;DHT22;69541;42.138;24.742;2023-04-24T03:50:12;23.20;30.30
80232;DHT22;69541;42.138;24.742;2023-04-24T03:52:38;23.20;30.20
80232;DHT22;69541;42.138;24.742;2023-04-24T03:55:04;23.20;30.20
80232;DHT22;69541;42.138;24.742;2023-04-24T03:57:33;23.30;30.30
80232;DHT22;69541;42.138;24.742;2023-04-24T03:59:59;23.20;30.20
80232;DHT22;69541;42.138;24.742;2023-04-24T04:02:25;23.30;30.30
80232;DHT22;69541;42.138;24.742;2023-04-24T04:04:50;23.30;30.30
80232;DHT22;69541;42.138;24.742;2023-04-24T04:07:16;23.30;31.30
80232;DHT22;69541;42.138;24.742;2023-04-24T04:09:42;23.30;30.50
80232;DHT22;69541;42.138;24.742;2023-04-24T04:12:08;23.20;31.40
80232;DHT22;69541;42.138;24.742;2023-04-24T04:14:33;23.20;32.30
80232;DHT22;69541;42.138;24.742;2023-04-24T04:16:59;23.00;32.70
80232;DHT22;69541;42.138;24.742;2023-04-24T04:19:25;23.00;32.50
80232;DHT22;69541;42.138;24.742;2023-04-24T04:21:50;22.90;31.90
80232;DHT22;69541;42.138;24.742;2023-04-24T04:24:19;22.80;31.40
80232;DHT22;69541;42.138;24.742;2023-04-24T04:26:46;22.60;30.90
80232;DHT22;69541;42.138;24.742;2023-04-24T04:29:13;22.50;30.70
80232;DHT22;69541;42.138;24.742;2023-04-24T04:31:39;22.50;30.70
80232;DHT22;69541;42.138;24.742;2023-04-24T04:34:07;22.40;30.70
80232;DHT22;69541;42.138;24.742;2023-04-24T04:36:33;22.30;30.70
80232;DHT22;69541;42.138;24.742;2023-04-24T04:39:02;22.30;30.80
80232;DHT22;69541;42.138;24.742;2023-04-24T04:41:28;22.20;30.80
80232;DHT22;69541;42.138;24.742;2023-04-24T04:43:54;22.20;30.90
80232;DHT22;69541;42.138;24.742;2023-04-24T04:46:20;22.10;30.90
80232;DHT22;69541;42.138;24.742;2023-04-24T04:48:45;22.10;31.10
80232;DHT22;69541;42.138;24.742;2023-04-24T04:51:11;22.00;31.10
80232;DHT22;69541;42.138;24.742;2023-04-24T04:53:37;21.90;31.00
80232;DHT22;69541;42.138;24.742;2023-04-24T04:56:03;21.90;31.10
80232;DHT22;69541;42.138;24.742;2023-04-24T04:58:31;21.90;31.00
80232;DHT22;69541;42.138;24.742;2023-04-24T05:00:56;21.90;31.00
80232;DHT22;69541;42.138;24.742;2023-04-24T05:03:22;21.80;31.00
80232;DHT22;69541;42.138;24.742;2023-04-24T05:05:48;21.80;31.20
80232;DHT22;69541;42.138;24.742;2023-04-24T05:08:14;21.60;31.40
80232;DHT22;69541;42.138;24.742;2023-04-24T05:10:39;21.60;31.60
80232;DHT22;69541;42.138;24.742;2023-04-24T05:13:05;21.60;31.70
80232;DHT22;69541;42.138;24.742;2023-04-24T05:15:33;21.60;31.80
80232;DHT22;69541;42.138;24.742;2023-04-24T05:17:59;21.60;31.90
80232;DHT22;69541;42.138;24.742;2023-04-24T05:20:25;21.60;32.10
80232;DHT22;69541;42.138;24.742;2023-04-24T05:22:51;21.60;32.10
80232;DHT22;69541;42.138;24.742;2023-04-24T05:25:16;21.60;32.10
80232;DHT22;69541;42.138;24.742;2023-04-24T05:27:42;21.60;32.10
80232;DHT22;69541;42.138;24.742;2023-04-24T05:30:08;21.60;32.10
80232;DHT22;69541;42.138;24.742;2023-04-24T05:32:34;21.60;32.00
80232;DHT22;69541;42.138;24.742;2023-04-24T05:35:00;21.50;32.10
80232;DHT22;69541;42.138;24.742;2023-04-24T05:37:26;21.60;32.20
80232;DHT22;69541;42.138;24.742;2023-04-24T05:39:52;21.50;32.20
80232;DHT22;69541;42.138;24.742;2023-04-24T05:42:18;21.60;32.40
80232;DHT22;69541;42.138;24.742;2023-04-24T05:44:43;21.50;32.50
80232;DHT22;69541;42.138;24.742;2023-04-24T05:47:09;21.50;32.60
80232;DHT22;69541;42.138;24.742;2023-04-24T05:49:34;21.50;32.60
80232;DHT22;69541;42.138;24.742;2023-04-24T05:52:00;21.50;32.70
80232;DHT22;69541;42.138;24.742;2023-04-24T05:54:26;21.60;32.70
80232;DHT22;69541;42.138;24.742;2023-04-24T05:56:55;21.60;32.70
80232;DHT22;69541;42.138;24.742;2023-04-24T05:59:21;21.60;32.70
80232;DHT22;69541;42.138;24.742;2023-04-24T06:01:47;21.60;32.80
80232;DHT22;69541;42.138;24.742;2023-04-24T06:04:12;21.60;32.70
80232;DHT22;69541;42.138;24.742;2023-04-24T06:06:41;21.60;32.80
80232;DHT22;69541;42.138;24.742;2023-04-24T06:09:07;21.60;32.80
80232;DHT22;69541;42.138;24.742;2023-04-24T06:11:32;21.60;32.80
80232;DHT22;69541;42.138;24.742;2023-04-24T06:13:58;21.60;32.70
80232;DHT22;69541;42.138;24.742;2023-04-24T06:16:24;21.60;32.70
80232;DHT22;69541;42.138;24.742;2023-04-24T06:18:49;21.70;32.70
80232;DHT22;69541;42.138;24.742;2023-04-24T06:21:16;21.70;32.60
80232;DHT22;69541;42.138;24.742;2023-04-24T06:23:42;21.80;32.50
80232;DHT22;69541;42.138;24.742;2023-04-24T06:26:08;21.90;32.40
80232;DHT22;69541;42.138;24.742;2023-04-24T06:28:33;22.00;32.30
80232;DHT22;69541;42.138;24.742;2023-04-24T06:30:59;22.10;32.20
80232;DHT22;69541;42.138;24.742;2023-04-24T06:33:25;22.20;32.10
80232;DHT22;69541;42.138;24.742;2023-04-24T06:35:50;22.30;32.00
80232;DHT22;69541;42.138;24.742;2023-04-24T06:38:16;22.30;31.80
80232;DHT22;69541;42.138;24.742;2023-04-24T06:40:42;22.40;31.70
80232;DHT22;69541;42.138;24.742;2023-04-24T06:43:07;22.50;31.60
80232;DHT22;69541;42.138;24.742;2023-04-24T06:45:33;22.50;31.40
80232;DHT22;69541;42.138;24.742;2023-04-24T06:47:59;22.60;31.30
80232;DHT22;69541;42.138;24.742;2023-04-24T06:50:25;22.60;31.30
80232;DHT22;69541;42.138;24.742;2023-04-24T06:52:50;22.70;31.20
80232;DHT22;69541;42.138;24.742;2023-04-24T06:55:16;22.70;31.00
80232;DHT22;69541;42.138;24.742;2023-04-24T06:57:42;22.80;31.00
80232;DHT22;69541;42.138;24.742;2023-04-24T07:00:09;22.80;30.90
80232;DHT22;69541;42.138;24.742;2023-04-24T07:02:35;22.90;30.90
80232;DHT22;69541;42.138;24.742;2023-04-24T07:05:01;23.00;30.90
80232;DHT22;69541;42.138;24.742;2023-04-24T07:07:27;23.00;30.80
80232;DHT22;69541;42.138;24.742;2023-04-24T07:09:53;23.00;30.70
80232;DHT22;69541;42.138;24.742;2023-04-24T07:12:19;23.00;30.70
80232;DHT22;69541;42.138;24.742;2023-04-24T07:14:47;23.10;30.70
80232;DHT22;69541;42.138;24.742;2023-04-24T07:17:13;23.10;30.60
80232;DHT22;69541;42.138;24.742;2023-04-24T07:19:39;23.20;30.60
80232;DHT22;69541;42.138;24.742;2023-04-24T07:22:04;23.20;30.50
80232;DHT22;69541;42.138;24.742;2023-04-24T07:24:30;23.20;30.40
80232;DHT22;69541;42.138;24.742;2023-04-24T07:26:58;23.20;30.40
80232;DHT22;69541;42.138;24.742;2023-04-24T07:29:24;23.30;31.50
80232;DHT22;69541;42.138;24.742;2023-04-24T07:31:50;23.30;30.30
80232;DHT22;69541;42.138;24.742;2023-04-24T07:34:15;23.30;30.30
80232;DHT22;69541;42.138;24.742;2023-04-24T07:36:41;23.40;30.30
80232;DHT22;69541;42.138;24.742;2023-04-24T07:39:09;23.40;30.20
80232;DHT22;69541;42.138;24.742;2023-04-24T07:41:35;23.40;30.10
80232;DHT22;69541;42.138;24.742;2023-04-24T07:44:01;23.40;30.10
80232;DHT22;69541;42.138;24.742;2023-04-24T07:46:26;23.40;30.10
80232;DHT22;69541;42.138;24.742;2023-04-24T07:48:55;23.40;30.00
80232;DHT22;69541;42.138;24.742;2023-04-24T07:51:21;23.50;30.00
80232;DHT22;69541;42.138;24.742;2023-04-24T07:53:47;23.50;30.00
80232;DHT22;69541;42.138;24.742;2023-04-24T07:56:12;23.50;30.00
80232;DHT22;69541;42.138;24.742;2023-04-24T07:58:38;23.50;30.00
80232;DHT22;69541;42.138;24.742;2023-04-24T08:01:04;23.50;30.00
80232;DHT22;69541;42.138;24.742;2023-04-24T08:03:30;23.50;30.00
80232;DHT22;69541;42.138;24.742;2023-04-24T08:05:55;23.50;30.00
80232;DHT22;69541;42.138;24.742;2023-04-24T08:08:22;23.60;30.00
80232;DHT22;69541;42.138;24.742;2023-04-24T08:10:48;23.60;30.00
80232;DHT22;69541;42.138;24.742;2023-04-24T08:13:14;23.60;30.00
80232;DHT22;69541;42.138;24.742;2023-04-24T08:15:40;23.60;30.00
80232;DHT22;69541;42.138;24.742;2023-04-24T08:18:06;23.60;30.00
80232;DHT22;69541;42.138;24.742;2023-04-24T08:20:32;23.60;30.00
80232;DHT22;69541;42.138;24.742;2023-04-24T08:22:57;23.60;30.00
80232;DHT22;69541;42.138;24.742;2023-04-24T08:25:23;23.60;30.00
80232;DHT22;69541;42.138;24.742;2023-04-24T08:27:50;23.60;30.00
80232;DHT22;69541;42.138;24.742;2023-04-24T08:30:16;23.60;30.00
80232;DHT22;69541;42.138;24.742;2023-04-24T08:32:42;23.60;30.00
80232;DHT22;69541;42.138;24.742;2023-04-24T08:35:08;23.70;30.00
80232;DHT22;69541;42.138;24.742;2023-04-24T08:37:35;23.70;30.00
80232;DHT22;69541;42.138;24.742;2023-04-24T11:42:16;24.10;35.80
80232;DHT22;69541;42.138;24.742;2023-04-24T11:44:43;24.00;37.70
80232;DHT22;69541;42.138;24.742;2023-04-24T11:47:08;24.10;36.60
80232;DHT22;69541;42.138;24.742;2023-04-24T11:49:37;24.30;36.50
80232;DHT22;69541;42.138;24.742;2023-04-24T11:52:03;24.50;37.10
80232;DHT22;69541;42.138;24.742;2023-04-24T11:54:29;24.60;35.20
80232;DHT22;69541;42.138;24.742;2023-04-24T11:56:56;24.80;35.10
80232;DHT22;69541;42.138;24.742;2023-04-24T11:59:22;24.90;34.40
80232;DHT22;69541;42.138;24.742;2023-04-24T12:01:48;24.90;34.40
80232;DHT22;69541;42.138;24.742;2023-04-24T12:04:16;25.00;34.30
80232;DHT22;69541;42.138;24.742;2023-04-24T12:07:01;25.10;34.40
80232;DHT22;69541;42.138;24.742;2023-04-24T12:09:27;25.20;34.30
80232;DHT22;69541;42.138;24.742;2023-04-24T12:11:54;25.20;34.30
80232;DHT22;69541;42.138;24.742;2023-04-24T12:14:23;25.20;34.10
80232;DHT22;69541;42.138;24.742;2023-04-24T12:16:50;25.20;34.10
80232;DHT22;69541;42.138;24.742;2023-04-24T12:19:21;25.20;34.10
80232;DHT22;69541;42.138;24.742;2023-04-24T12:22:04;25.30;34.10
80232;DHT22;69541;42.138;24.742;2023-04-24T12:24:30;25.30;34.10
80232;DHT22;69541;42.138;24.742;2023-04-24T12:26:57;25.30;34.10
80232;DHT22;69541;42.138;24.742;2023-04-24T12:29:24;25.30;34.10
80232;DHT22;69541;42.138;24.742;2023-04-24T12:31:51;25.40;34.00
80232;DHT22;69541;42.138;24.742;2023-04-24T12:34:20;25.40;34.00
80232;DHT22;69541;42.138;24.742;2023-04-24T12:36:47;25.40;34.00
80232;DHT22;69541;42.138;24.742;2023-04-24T12:39:17;25.40;34.00
80232;DHT22;69541;42.138;24.742;2023-04-24T12:41:56;25.40;34.00
80232;DHT22;69541;42.138;24.742;2023-04-24T12:44:29;25.40;33.80
80232;DHT22;69541;42.138;24.742;2023-04-24T12:46:56;25.50;33.90
80232;DHT22;69541;42.138;24.742;2023-04-24T12:49:22;25.50;33.80
80232;DHT22;69541;42.138;24.742;2023-04-24T12:51:47;25.60;33.80
80232;DHT22;69541;42.138;24.742;2023-04-24T12:54:13;25.60;33.80
80232;DHT22;69541;42.138;24.742;2023-04-24T12:56:39;25.60;33.80
80232;DHT22;69541;42.138;24.742;2023-04-24T12:59:04;25.60;33.70
80232;DHT22;69541;42.138;24.742;2023-04-24T13:01:30;25.70;33.50
80232;DHT22;69541;42.138;24.742;2023-04-24T13:03:56;25.70;33.50
80232;DHT22;69541;42.138;24.742;2023-04-24T13:06:22;25.70;33.60
80232;DHT22;69541;42.138;24.742;2023-04-24T13:08:47;25.80;33.40
80232;DHT22;69541;42.138;24.742;2023-04-24T13:11:14;25.80;33.40
80232;DHT22;69541;42.138;24.742;2023-04-24T13:13:39;25.80;33.60
80232;DHT22;69541;42.138;24.742;2023-04-24T13:16:05;25.80;33.60
80232;DHT22;69541;42.138;24.742;2023-04-24T13:18:31;25.80;33.70
80232;DHT22;69541;42.138;24.742;2023-04-24T13:20:56;25.90;33.60
80232;DHT22;69541;42.138;24.742;2023-04-24T13:23:22;25.90;33.60
80232;DHT22;69541;42.138;24.742;2023-04-24T13:25:48;25.90;33.70
80232;DHT22;69541;42.138;24.742;2023-04-24T13:28:14;25.80;33.90
80232;DHT22;69541;42.138;24.742;2023-04-24T13:30:40;25.80;33.90
80232;DHT22;69541;42.138;24.742;2023-04-24T13:33:06;25.90;33.80
80232;DHT22;69541;42.138;24.742;2023-04-24T13:35:32;25.90;33.70
80232;DHT22;69541;42.138;24.742;2023-04-24T13:37:58;25.90;33.90
80232;DHT22;69541;42.138;24.742;2023-04-24T13:40:24;25.90;33.90
80232;DHT22;69541;42.138;24.742;2023-04-24T13:42:49;25.90;34.00
80232;DHT22;69541;42.138;24.742;2023-04-24T13:45:16;25.90;34.00
80232;DHT22;69541;42.138;24.742;2023-04-24T13:47:41;25.90;34.10
80232;DHT22;69541;42.138;24.742;2023-04-24T13:50:08;25.90;33.90
80232;DHT22;69541;42.138;24.742;2023-04-24T13:52:34;25.90;33.80
80232;DHT22;69541;42.138;24.742;2023-04-24T13:55:00;25.90;33.80
80232;DHT22;69541;42.138;24.742;2023-04-24T13:57:26;25.90;33.90
80232;DHT22;69541;42.138;24.742;2023-04-24T13:59:52;25.90;33.80
80232;DHT22;69541;42.138;24.742;2023-04-24T14:02:18;25.90;33.80
80232;DHT22;69541;42.138;24.742;2023-04-24T14:04:44;25.90;33.80
80232;DHT22;69541;42.138;24.742;2023-04-24T14:07:10;26.00;33.80
80232;DHT22;69541;42.138;24.742;2023-04-24T14:09:35;26.00;33.80
80232;DHT22;69541;42.138;24.742;2023-04-24T14:12:01;26.00;33.90
80232;DHT22;69541;42.138;24.742;2023-04-24T14:14:27;26.00;34.00
80232;DHT22;69541;42.138;24.742;2023-04-24T14:16:55;25.90;34.10
80232;DHT22;69541;42.138;24.742;2023-04-24T14:19:20;25.90;34.10
80232;DHT22;69541;42.138;24.742;2023-04-24T14:21:46;25.90;34.10
80232;DHT22;69541;42.138;24.742;2023-04-24T14:24:11;25.90;34.20
80232;DHT22;69541;42.138;24.742;2023-04-24T14:26:37;25.90;34.00
80232;DHT22;69541;42.138;24.742;2023-04-24T14:29:03;25.90;34.00
80232;DHT22;69541;42.138;24.742;2023-04-24T14:31:28;26.00;34.00
80232;DHT22;69541;42.138;24.742;2023-04-24T14:33:54;26.00;33.70
80232;DHT22;69541;42.138;24.742;2023-04-24T14:36:20;26.00;34.00
80232;DHT22;69541;42.138;24.742;2023-04-24T14:38:45;26.00;33.80
80232;DHT22;69541;42.138;24.742;2023-04-24T14:41:11;25.90;34.00
80232;DHT22;69541;42.138;24.742;2023-04-24T14:43:37;25.90;33.90
80232;DHT22;69541;42.138;24.742;2023-04-24T14:46:03;25.90;34.00
80232;DHT22;69541;42.138;24.742;2023-04-24T14:48:29;25.90;34.00
80232;DHT22;69541;42.138;24.742;2023-04-24T14:50:55;25.90;34.10
80232;DHT22;69541;42.138;24.742;2023-04-24T14:53:28;25.90;35.40
80232;DHT22;69541;42.138;24.742;2023-04-24T14:55:54;25.80;34.10
80232;DHT22;69541;42.138;24.742;2023-04-24T14:58:19;25.80;34.10
80232;DHT22;69541;42.138;24.742;2023-04-24T15:00:45;25.80;34.10
80232;DHT22;69541;42.138;24.742;2023-04-24T15:03:11;25.80;34.00
80232;DHT22;69541;42.138;24.742;2023-04-24T15:05:36;25.80;34.10
80232;DHT22;69541;42.138;24.742;2023-04-24T15:08:02;25.90;34.10
80232;DHT22;69541;42.138;24.742;2023-04-24T15:10:28;25.90;34.00
80232;DHT22;69541;42.138;24.742;2023-04-24T15:12:55;25.90;34.10
80232;DHT22;69541;42.138;24.742;2023-04-24T15:15:20;25.90;34.10
80232;DHT22;69541;42.138;24.742;2023-04-24T15:17:46;25.90;34.10
80232;DHT22;69541;42.138;24.742;2023-04-24T15:20:12;25.90;34.00
80232;DHT22;69541;42.138;24.742;2023-04-24T15:22:37;25.90;33.80
80232;DHT22;69541;42.138;24.742;2023-04-24T15:25:03;25.90;33.80
80232;DHT22;69541;42.138;24.742;2023-04-24T15:27:44;25.90;33.80
80232;DHT22;69541;42.138;24.742;2023-04-24T15:30:10;25.90;33.70
80232;DHT22;69541;42.138;24.742;2023-04-24T15:32:37;25.90;33.70
80232;DHT22;69541;42.138;24.742;2023-04-24T15:35:03;25.90;33.80
80232;DHT22;69541;42.138;24.742;2023-04-24T15:37:29;25.90;33.80
80232;DHT22;69541;42.138;24.742;2023-04-24T15:39:55;25.80;33.80
80232;DHT22;69541;42.138;24.742;2023-04-24T15:42:21;25.70;33.80
80232;DHT22;69541;42.138;24.742;2023-04-24T15:44:46;25.60;33.70
80232;DHT22;69541;42.138;24.742;2023-04-24T15:47:12;25.60;34.00
80232;DHT22;69541;42.138;24.742;2023-04-24T15:49:39;25.60;34.10
80232;DHT22;69541;42.138;24.742;2023-04-24T15:52:05;25.60;34.10
80232;DHT22;69541;42.138;24.742;2023-04-24T15:54:31;25.60;34.00
80232;DHT22;69541;42.138;24.742;2023-04-24T15:56:57;25.60;34.00
80232;DHT22;69541;42.138;24.742;2023-04-24T15:59:23;25.60;34.00
80232;DHT22;69541;42.138;24.742;2023-04-24T16:01:49;25.60;33.90
80232;DHT22;69541;42.138;24.742;2023-04-24T16:04:15;25.60;33.80
80232;DHT22;69541;42.138;24.742;2023-04-24T16:06:40;25.70;33.90
80232;DHT22;69541;42.138;24.742;2023-04-24T16:09:06;25.70;33.80
80232;DHT22;69541;42.138;24.742;2023-04-24T16:11:33;25.70;33.70
80232;DHT22;69541;42.138;24.742;2023-04-24T16:14:01;25.70;33.60
80232;DHT22;69541;42.138;24.742;2023-04-24T16:16:27;25.70;33.70
80232;DHT22;69541;42.138;24.742;2023-04-24T16:18:52;25.70;33.60
80232;DHT22;69541;42.138;24.742;2023-04-24T16:21:19;25.70;33.60
80232;DHT22;69541;42.138;24.742;2023-04-24T16:23:45;25.70;34.70
80232;DHT22;69541;42.138;24.742;2023-04-24T16:26:11;25.70;33.60
80232;DHT22;69541;42.138;24.742;2023-04-24T16:28:37;25.80;33.50
80232;DHT22;69541;42.138;24.742;2023-04-24T16:31:03;25.80;33.40
80232;DHT22;69541;42.138;24.742;2023-04-24T16:33:29;25.70;33.40
80232;DHT22;69541;42.138;24.742;2023-04-24T16:35:56;25.80;33.60
80232;DHT22;69541;42.138;24.742;2023-04-24T16:38:22;25.70;33.50
80232;DHT22;69541;42.138;24.742;2023-04-24T16:40:51;25.70;33.50
80232;DHT22;69541;42.138;24.742;2023-04-24T16:43:17;25.70;33.60
80232;DHT22;69541;42.138;24.742;2023-04-24T16:45:43;25.60;33.60
80232;DHT22;69541;42.138;24.742;2023-04-24T16:48:09;25.60;33.50
80232;DHT22;69541;42.138;24.742;2023-04-24T16:50:36;25.70;33.50
80232;DHT22;69541;42.138;24.742;2023-04-24T16:53:02;25.70;33.50
80232;DHT22;69541;42.138;24.742;2023-04-24T16:55:28;25.60;33.50
80232;DHT22;69541;42.138;24.742;2023-04-24T16:57:54;25.60;33.60
80232;DHT22;69541;42.138;24.742;2023-04-24T17:00:20;25.50;33.60
80232;DHT22;69541;42.138;24.742;2023-04-24T17:02:46;25.50;33.70
80232;DHT22;69541;42.138;24.742;2023-04-24T17:05:14;25.50;33.80
80232;DHT22;69541;42.138;24.742;2023-04-24T17:07:40;25.50;33.80
80232;DHT22;69541;42.138;24.742;2023-04-24T17:10:07;25.50;33.80
80232;DHT22;69541;42.138;24.742;2023-04-24T17:12:35;25.50;33.80
80232;DHT22;69541;42.138;24.742;2023-04-24T17:15:01;25.40;34.00
80232;DHT22;69541;42.138;24.742;2023-04-24T17:17:27;25.30;33.80
80232;DHT22;69541;42.138;24.742;2023-04-24T17:19:53;25.40;33.90
80232;DHT22;69541;42.138;24.742;2023-04-24T17:22:19;25.40;33.80
80232;DHT22;69541;42.138;24.742;2023-04-24T17:24:45;25.40;33.70
80232;DHT22;69541;42.138;24.742;2023-04-24T17:27:11;25.40;34.00
80232;DHT22;69541;42.138;24.742;2023-04-24T17:29:37;25.30;33.80
80232;DHT22;69541;42.138;24.742;2023-04-24T17:32:03;25.30;33.90
80232;DHT22;69541;42.138;24.742;2023-04-24T17:34:28;25.20;33.90
80232;DHT22;69541;42.138;24.742;2023-04-24T17:36:54;25.20;34.00
80232;DHT22;69541;42.138;24.742;2023-04-24T17:39:21;25.20;34.10
80232;DHT22;69541;42.138;24.742;2023-04-24T17:41:46;25.10;34.10
80232;DHT22;69541;42.138;24.742;2023-04-24T17:44:12;25.10;34.10
80232;DHT22;69541;42.138;24.742;2023-04-24T17:46:38;25.10;34.10
80232;DHT22;69541;42.138;24.742;2023-04-24T17:49:03;25.10;34.10
80232;DHT22;69541;42.138;24.742;2023-04-24T17:51:29;25.10;34.10
80232;DHT22;69541;42.138;24.742;2023-04-24T17:53:55;25.00;34.10
80232;DHT22;69541;42.138;24.742;2023-04-24T17:56:20;25.00;34.10
80232;DHT22;69541;42.138;24.742;2023-04-24T17:58:47;25.00;34.20
80232;DHT22;69541;42.138;24.742;2023-04-24T18:01:13;25.00;34.20
80232;DHT22;69541;42.138;24.742;2023-04-24T18:03:39;25.00;35.30
80232;DHT22;69541;42.138;24.742;2023-04-24T18:06:05;25.00;34.20
80232;DHT22;69541;42.138;24.742;2023-04-24T18:08:30;25.00;34.20
80232;DHT22;69541;42.138;24.742;2023-04-24T18:10:57;24.90;34.20